sensor_id;sensor_type;location;lat;lon;timestamp;P1;durP1;ratioP1;P2;durP2;ratioP2
32138;SDS011;18644;48.700;9.210;2023-06-10T00:02:04;2.80;;;2.55;;
32138;SDS011;18644;48.700;9.210;2023-06-10T00:04:32;2.85;;;2.55;;
32138;SDS011;18644;48.700;9.210;2023-06-10T00:06:59;3.67;;;3.10;;
32138;SDS011;18644;48.700;9.210;2023-06-10T00:09:26;6.38;;;3.13;;
32138;SDS011;18644;48.700;9.210;2023-06-10T00:11:55;3.03;;;2.72;;
32138;SDS011;18644;48.700;9.210;2023-06-10T00:14:24;2.60;;;2.40;;
32138;SDS011;18644;48.700;9.210;2023-06-10T00:16:51;3.17;;;2.88;;
32138;SDS011;18644;48.700;9.210;2023-06-10T00:19:18;3.92;;;2.70;;
32138;SDS011;18644;48.700;9.210;2023-06-10T00:21:50;3.00;;;2.72;;
32138;SDS011;18644;48.700;9.210;2023-06-10T00:24:18;3.60;;;2.97;;
32138;SDS011;18644;48.700;9.210;2023-06-10T00:26:45;4.68;;;3.22;;
32138;SDS011;18644;48.700;9.210;2023-06-10T00:29:13;5.75;;;2.92;;
32138;SDS011;18644;48.700;9.210;2023-06-10T00:31:40;2.90;;;2.60;;
32138;SDS011;18644;48.700;9.210;2023-06-10T00:34:07;4.32;;;3.17;;
32138;SDS011;18644;48.700;9.210;2023-06-10T00:36:34;3.78;;;3.00;;
32138;SDS011;18644;48.700;9.210;2023-06-10T00:39:01;3.63;;;2.92;;
32138;SDS011;18644;48.700;9.210;2023-06-10T00:41:29;3.20;;;2.90;;
32138;SDS011;18644;48.700;9.210;2023-06-10T00:43:56;3.63;;;3.10;;
32138;SDS011;18644;48.700;9.210;2023-06-10T00:46:25;3.28;;;2.85;;
32138;SDS011;18644;48.700;9.210;2023-06-10T00:48:52;3.33;;;3.03;;
32138;SDS011;18644;48.700;9.210;2023-06-10T00:51:19;3.95;;;3.38;;
32138;SDS011;18644;48.700;9.210;2023-06-10T00:53:47;3.83;;;3.28;;
32138;SDS011;18644;48.700;9.210;2023-06-10T00:56:15;5.50;;;3.30;;
32138;SDS011;18644;48.700;9.210;2023-06-10T00:58:42;3.42;;;2.92;;
32138;SDS011;18644;48.700;9.210;2023-06-10T01:01:09;4.40;;;3.13;;
32138;SDS011;18644;48.700;9.210;2023-06-10T01:03:39;5.93;;;3.13;;
32138;SDS011;18644;48.700;9.210;2023-06-10T01:06:06;4.60;;;3.20;;
32138;SDS011;18644;48.700;9.210;2023-06-10T01:08:50;5.63;;;3.38;;
32138;SDS011;18644;48.700;9.210;2023-06-10T01:11:25;3.70;;;2.90;;
32138;SDS011;18644;48.700;9.210;2023-06-10T01:13:58;3.83;;;3.03;;
32138;SDS011;18644;48.700;9.210;2023-06-10T01:16:25;4.18;;;3.55;;
32138;SDS011;18644;48.700;9.210;2023-06-10T01:18:54;3.88;;;3.08;;
32138;SDS011;18644;48.700;9.210;2023-06-10T01:21:23;3.45;;;3.00;;
32138;SDS011;18644;48.700;9.210;2023-06-10T01:23:51;3.75;;;2.92;;
32138;SDS011;18644;48.700;9.210;2023-06-10T01:26:22;3.95;;;3.33;;
32138;SDS011;18644;48.700;9.210;2023-06-10T01:28:57;3.97;;;3.20;;
32138;SDS011;18644;48.700;9.210;2023-06-10T01:31:31;3.80;;;3.40;;
32138;SDS011;18644;48.700;9.210;2023-06-10T01:34:09;3.15;;;2.80;;
32138;SDS011;18644;48.700;9.210;2023-06-10T01:36:41;3.70;;;3.25;;
32138;SDS011;18644;48.700;9.210;2023-06-10T01:39:13;3.90;;;3.25;;
32138;SDS011;18644;48.700;9.210;2023-06-10T01:41:42;3.38;;;2.90;;
32138;SDS011;18644;48.700;9.210;2023-06-10T01:44:09;5.05;;;3.53;;
32138;SDS011;18644;48.700;9.210;2023-06-10T01:46:36;3.60;;;3.28;;
32138;SDS011;18644;48.700;9.210;2023-06-10T01:49:03;3.30;;;3.03;;
32138;SDS011;18644;48.700;9.210;2023-06-10T01:51:30;3.97;;;3.20;;
32138;SDS011;18644;48.700;9.210;2023-06-10T01:53:58;5.65;;;2.92;;
32138;SDS011;18644;48.700;9.210;2023-06-10T01:56:25;2.72;;;2.53;;
32138;SDS011;18644;48.700;9.210;2023-06-10T01:58:52;4.05;;;3.65;;
32138;SDS011;18644;48.700;9.210;2023-06-10T02:01:23;4.65;;;3.45;;
32138;SDS011;18644;48.700;9.210;2023-06-10T02:03:50;3.67;;;2.95;;
32138;SDS011;18644;48.700;9.210;2023-06-10T02:06:17;4.13;;;3.40;;
32138;SDS011;18644;48.700;9.210;2023-06-10T02:08:44;5.00;;;3.45;;
32138;SDS011;18644;48.700;9.210;2023-06-10T02:11:12;6.28;;;3.35;;
32138;SDS011;18644;48.700;9.210;2023-06-10T02:13:39;4.53;;;3.17;;
32138;SDS011;18644;48.700;9.210;2023-06-10T02:16:06;5.82;;;2.92;;
32138;SDS011;18644;48.700;9.210;2023-06-10T02:18:34;3.45;;;3.13;;
32138;SDS011;18644;48.700;9.210;2023-06-10T02:21:01;3.88;;;3.45;;
32138;SDS011;18644;48.700;9.210;2023-06-10T02:23:28;3.30;;;3.00;;
32138;SDS011;18644;48.700;9.210;2023-06-10T02:25:55;4.28;;;3.38;;
32138;SDS011;18644;48.700;9.210;2023-06-10T02:28:23;5.00;;;3.10;;
32138;SDS011;18644;48.700;9.210;2023-06-10T02:30:50;3.72;;;3.42;;
32138;SDS011;18644;48.700;9.210;2023-06-10T02:33:18;3.65;;;3.22;;
32138;SDS011;18644;48.700;9.210;2023-06-10T02:35:45;3.70;;;3.13;;
32138;SDS011;18644;48.700;9.210;2023-06-10T02:38:12;3.55;;;3.25;;
32138;SDS011;18644;48.700;9.210;2023-06-10T02:40:38;4.47;;;3.72;;
32138;SDS011;18644;48.700;9.210;2023-06-10T02:43:05;3.85;;;3.45;;
32138;SDS011;18644;48.700;9.210;2023-06-10T02:45:33;3.55;;;3.22;;
32138;SDS011;18644;48.700;9.210;2023-06-10T02:48:00;8.20;;;3.65;;
32138;SDS011;18644;48.700;9.210;2023-06-10T02:50:27;3.72;;;3.33;;
32138;SDS011;18644;48.700;9.210;2023-06-10T02:52:54;4.47;;;3.33;;
32138;SDS011;18644;48.700;9.210;2023-06-10T02:55:21;5.40;;;3.13;;
32138;SDS011;18644;48.700;9.210;2023-06-10T02:57:51;4.15;;;3.22;;
32138;SDS011;18644;48.700;9.210;2023-06-10T03:00:19;4.93;;;3.33;;
32138;SDS011;18644;48.700;9.210;2023-06-10T03:02:47;3.83;;;3.42;;
32138;SDS011;18644;48.700;9.210;2023-06-10T03:05:14;5.50;;;3.72;;
32138;SDS011;18644;48.700;9.210;2023-06-10T03:07:42;4.25;;;3.85;;
32138;SDS011;18644;48.700;9.210;2023-06-10T03:10:09;8.77;;;4.00;;
32138;SDS011;18644;48.700;9.210;2023-06-10T03:12:36;15.07;;;3.80;;
32138;SDS011;18644;48.700;9.210;2023-06-10T03:15:03;4.78;;;2.97;;
32138;SDS011;18644;48.700;9.210;2023-06-10T03:17:32;5.70;;;3.20;;
32138;SDS011;18644;48.700;9.210;2023-06-10T03:20:00;8.18;;;3.67;;
32138;SDS011;18644;48.700;9.210;2023-06-10T03:22:28;5.65;;;3.63;;
32138;SDS011;18644;48.700;9.210;2023-06-10T03:24:55;4.82;;;3.20;;
32138;SDS011;18644;48.700;9.210;2023-06-10T03:27:22;4.10;;;3.00;;
32138;SDS011;18644;48.700;9.210;2023-06-10T03:29:49;6.72;;;3.22;;
32138;SDS011;18644;48.700;9.210;2023-06-10T03:32:16;5.53;;;3.20;;
32138;SDS011;18644;48.700;9.210;2023-06-10T03:34:43;6.47;;;3.50;;
32138;SDS011;18644;48.700;9.210;2023-06-10T03:37:13;5.03;;;3.15;;
32138;SDS011;18644;48.700;9.210;2023-06-10T03:39:40;4.60;;;3.40;;
32138;SDS011;18644;48.700;9.210;2023-06-10T03:42:07;3.35;;;2.95;;
32138;SDS011;18644;48.700;9.210;2023-06-10T03:44:34;7.53;;;3.25;;
32138;SDS011;18644;48.700;9.210;2023-06-10T03:47:01;3.50;;;3.20;;
32138;SDS011;18644;48.700;9.210;2023-06-10T03:49:28;5.30;;;3.10;;
32138;SDS011;18644;48.700;9.210;2023-06-10T03:51:55;3.65;;;3.17;;
32138;SDS011;18644;48.700;9.210;2023-06-10T03:54:23;3.72;;;2.92;;
32138;SDS011;18644;48.700;9.210;2023-06-10T03:56:50;3.47;;;3.17;;
32138;SDS011;18644;48.700;9.210;2023-06-10T03:59:17;3.35;;;3.05;;
32138;SDS011;18644;48.700;9.210;2023-06-10T04:01:44;3.78;;;3.40;;
32138;SDS011;18644;48.700;9.210;2023-06-10T04:04:13;7.15;;;3.08;;
32138;SDS011;18644;48.700;9.210;2023-06-10T04:06:41;4.20;;;3.47;;
32138;SDS011;18644;48.700;9.210;2023-06-10T04:09:09;3.63;;;2.92;;
32138;SDS011;18644;48.700;9.210;2023-06-10T04:11:38;4.15;;;3.42;;
32138;SDS011;18644;48.700;9.210;2023-06-10T04:14:04;3.92;;;3.22;;
32138;SDS011;18644;48.700;9.210;2023-06-10T04:16:31;3.45;;;3.15;;
32138;SDS011;18644;48.700;9.210;2023-06-10T04:18:58;3.85;;;3.30;;
32138;SDS011;18644;48.700;9.210;2023-06-10T04:21:26;4.15;;;3.55;;
32138;SDS011;18644;48.700;9.210;2023-06-10T04:23:53;3.60;;;3.20;;
32138;SDS011;18644;48.700;9.210;2023-06-10T04:26:20;3.58;;;3.10;;
32138;SDS011;18644;48.700;9.210;2023-06-10T04:28:48;3.78;;;3.40;;
32138;SDS011;18644;48.700;9.210;2023-06-10T04:31:15;3.08;;;2.80;;
32138;SDS011;18644;48.700;9.210;2023-06-10T04:33:42;3.90;;;3.05;;
32138;SDS011;18644;48.700;9.210;2023-06-10T04:36:09;6.38;;;4.03;;
32138;SDS011;18644;48.700;9.210;2023-06-10T04:38:36;3.20;;;2.88;;
32138;SDS011;18644;48.700;9.210;2023-06-10T04:41:03;4.18;;;3.75;;
32138;SDS011;18644;48.700;9.210;2023-06-10T04:43:29;3.92;;;3.53;;
32138;SDS011;18644;48.700;9.210;2023-06-10T04:45:58;3.70;;;3.30;;
32138;SDS011;18644;48.700;9.210;2023-06-10T04:48:25;3.97;;;3.40;;
32138;SDS011;18644;48.700;9.210;2023-06-10T04:50:52;4.07;;;3.55;;
32138;SDS011;18644;48.700;9.210;2023-06-10T04:53:19;5.18;;;3.08;;
32138;SDS011;18644;48.700;9.210;2023-06-10T04:55:46;4.00;;;3.60;;
32138;SDS011;18644;48.700;9.210;2023-06-10T04:58:13;3.35;;;3.05;;
32138;SDS011;18644;48.700;9.210;2023-06-10T05:00:41;3.17;;;2.80;;
32138;SDS011;18644;48.700;9.210;2023-06-10T05:03:10;3.20;;;2.90;;
32138;SDS011;18644;48.700;9.210;2023-06-10T05:05:37;3.22;;;2.92;;
32138;SDS011;18644;48.700;9.210;2023-06-10T05:08:04;3.45;;;3.15;;
32138;SDS011;18644;48.700;9.210;2023-06-10T05:10:30;3.15;;;2.85;;
32138;SDS011;18644;48.700;9.210;2023-06-10T05:12:59;3.08;;;2.80;;
32138;SDS011;18644;48.700;9.210;2023-06-10T05:15:26;3.28;;;2.97;;
32138;SDS011;18644;48.700;9.210;2023-06-10T05:17:53;3.33;;;3.03;;
32138;SDS011;18644;48.700;9.210;2023-06-10T05:20:21;3.15;;;2.75;;
32138;SDS011;18644;48.700;9.210;2023-06-10T05:22:48;5.70;;;2.70;;
32138;SDS011;18644;48.700;9.210;2023-06-10T05:25:15;3.40;;;2.63;;
32138;SDS011;18644;48.700;9.210;2023-06-10T05:27:42;3.35;;;2.85;;
32138;SDS011;18644;48.700;9.210;2023-06-10T05:30:09;4.05;;;2.65;;
32138;SDS011;18644;48.700;9.210;2023-06-10T05:32:37;3.00;;;2.63;;
32138;SDS011;18644;48.700;9.210;2023-06-10T05:35:04;2.92;;;2.50;;
32138;SDS011;18644;48.700;9.210;2023-06-10T05:37:34;3.53;;;3.08;;
32138;SDS011;18644;48.700;9.210;2023-06-10T05:40:01;3.10;;;2.80;;
32138;SDS011;18644;48.700;9.210;2023-06-10T05:42:30;3.13;;;2.83;;
32138;SDS011;18644;48.700;9.210;2023-06-10T05:44:57;4.40;;;3.63;;
32138;SDS011;18644;48.700;9.210;2023-06-10T05:47:24;4.07;;;3.13;;
32138;SDS011;18644;48.700;9.210;2023-06-10T05:49:50;3.55;;;3.10;;
32138;SDS011;18644;48.700;9.210;2023-06-10T05:52:17;2.53;;;2.30;;
32138;SDS011;18644;48.700;9.210;2023-06-10T05:54:46;4.40;;;2.80;;
32138;SDS011;18644;48.700;9.210;2023-06-10T05:57:13;4.10;;;3.00;;
32138;SDS011;18644;48.700;9.210;2023-06-10T05:59:39;2.85;;;2.58;;
32138;SDS011;18644;48.700;9.210;2023-06-10T06:02:06;4.43;;;2.80;;
32138;SDS011;18644;48.700;9.210;2023-06-10T06:04:33;5.38;;;2.92;;
32138;SDS011;18644;48.700;9.210;2023-06-10T06:07:00;2.97;;;2.78;;
32138;SDS011;18644;48.700;9.210;2023-06-10T06:09:27;6.63;;;3.05;;
32138;SDS011;18644;48.700;9.210;2023-06-10T06:11:55;3.42;;;2.85;;
32138;SDS011;18644;48.700;9.210;2023-06-10T06:14:22;3.05;;;2.85;;
32138;SDS011;18644;48.700;9.210;2023-06-10T06:16:51;3.60;;;3.30;;
32138;SDS011;18644;48.700;9.210;2023-06-10T06:19:17;2.72;;;2.53;;
32138;SDS011;18644;48.700;9.210;2023-06-10T06:21:44;3.50;;;2.90;;
32138;SDS011;18644;48.700;9.210;2023-06-10T06:24:17;3.40;;;3.10;;
32138;SDS011;18644;48.700;9.210;2023-06-10T06:26:44;3.63;;;3.33;;
32138;SDS011;18644;48.700;9.210;2023-06-10T06:29:12;3.85;;;3.00;;
32138;SDS011;18644;48.700;9.210;2023-06-10T06:31:39;3.55;;;3.10;;
32138;SDS011;18644;48.700;9.210;2023-06-10T06:34:06;3.58;;;3.00;;
32138;SDS011;18644;48.700;9.210;2023-06-10T06:36:33;4.97;;;3.35;;
32138;SDS011;18644;48.700;9.210;2023-06-10T06:39:00;4.72;;;2.85;;
32138;SDS011;18644;48.700;9.210;2023-06-10T06:41:26;4.75;;;3.00;;
32138;SDS011;18644;48.700;9.210;2023-06-10T06:43:53;3.35;;;3.05;;
32138;SDS011;18644;48.700;9.210;2023-06-10T06:46:22;4.25;;;2.90;;
32138;SDS011;18644;48.700;9.210;2023-06-10T06:48:48;2.92;;;2.67;;
32138;SDS011;18644;48.700;9.210;2023-06-10T06:51:15;3.17;;;2.85;;
32138;SDS011;18644;48.700;9.210;2023-06-10T06:53:42;3.33;;;2.90;;
32138;SDS011;18644;48.700;9.210;2023-06-10T06:56:10;3.17;;;2.80;;
32138;SDS011;18644;48.700;9.210;2023-06-10T06:58:37;3.90;;;3.08;;
32138;SDS011;18644;48.700;9.210;2023-06-10T07:01:04;3.47;;;3.05;;
32138;SDS011;18644;48.700;9.210;2023-06-10T07:03:32;4.93;;;3.20;;
32138;SDS011;18644;48.700;9.210;2023-06-10T07:05:59;3.83;;;3.00;;
32138;SDS011;18644;48.700;9.210;2023-06-10T07:08:26;3.28;;;2.97;;
32138;SDS011;18644;48.700;9.210;2023-06-10T07:10:53;3.17;;;2.90;;
32138;SDS011;18644;48.700;9.210;2023-06-10T07:13:20;5.35;;;3.00;;
32138;SDS011;18644;48.700;9.210;2023-06-10T07:15:47;3.20;;;2.90;;
32138;SDS011;18644;48.700;9.210;2023-06-10T07:18:14;3.60;;;3.30;;
32138;SDS011;18644;48.700;9.210;2023-06-10T07:20:43;4.03;;;3.53;;
32138;SDS011;18644;48.700;9.210;2023-06-10T07:23:10;2.95;;;2.65;;
32138;SDS011;18644;48.700;9.210;2023-06-10T07:25:37;3.22;;;2.92;;
32138;SDS011;18644;48.700;9.210;2023-06-10T07:28:04;3.20;;;2.90;;
32138;SDS011;18644;48.700;9.210;2023-06-10T07:30:31;2.95;;;2.65;;
32138;SDS011;18644;48.700;9.210;2023-06-10T07:32:58;3.28;;;2.97;;
32138;SDS011;18644;48.700;9.210;2023-06-10T07:35:25;3.17;;;2.88;;
32138;SDS011;18644;48.700;9.210;2023-06-10T07:37:54;3.35;;;3.05;;
32138;SDS011;18644;48.700;9.210;2023-06-10T07:40:20;3.10;;;2.80;;
32138;SDS011;18644;48.700;9.210;2023-06-10T07:42:47;3.65;;;3.08;;
32138;SDS011;18644;48.700;9.210;2023-06-10T07:45:14;2.63;;;2.42;;
32138;SDS011;18644;48.700;9.210;2023-06-10T07:47:42;3.25;;;2.95;;
32138;SDS011;18644;48.700;9.210;2023-06-10T07:50:09;3.05;;;2.78;;
32138;SDS011;18644;48.700;9.210;2023-06-10T07:52:36;2.78;;;2.58;;
32138;SDS011;18644;48.700;9.210;2023-06-10T07:55:05;2.90;;;2.60;;
32138;SDS011;18644;48.700;9.210;2023-06-10T07:57:33;3.05;;;2.75;;
32138;SDS011;18644;48.700;9.210;2023-06-10T08:00:01;3.20;;;2.90;;
32138;SDS011;18644;48.700;9.210;2023-06-10T08:02:29;4.20;;;2.83;;
32138;SDS011;18644;48.700;9.210;2023-06-10T08:04:56;2.97;;;2.67;;
32138;SDS011;18644;48.700;9.210;2023-06-10T08:07:23;3.15;;;2.42;;
32138;SDS011;18644;48.700;9.210;2023-06-10T08:09:50;2.72;;;2.40;;
32138;SDS011;18644;48.700;9.210;2023-06-10T08:12:18;2.72;;;2.53;;
32138;SDS011;18644;48.700;9.210;2023-06-10T08:14:46;2.88;;;2.60;;
32138;SDS011;18644;48.700;9.210;2023-06-10T08:17:13;2.63;;;2.42;;
32138;SDS011;18644;48.700;9.210;2023-06-10T08:19:40;3.28;;;2.97;;
32138;SDS011;18644;48.700;9.210;2023-06-10T08:22:07;2.33;;;2.13;;
32138;SDS011;18644;48.700;9.210;2023-06-10T08:24:35;3.80;;;2.55;;
32138;SDS011;18644;48.700;9.210;2023-06-10T08:27:02;3.08;;;2.78;;
32138;SDS011;18644;48.700;9.210;2023-06-10T08:29:32;3.33;;;2.60;;
32138;SDS011;18644;48.700;9.210;2023-06-10T08:31:59;4.15;;;2.83;;
32138;SDS011;18644;48.700;9.210;2023-06-10T08:34:27;2.53;;;2.33;;
32138;SDS011;18644;48.700;9.210;2023-06-10T08:36:54;3.03;;;2.55;;
32138;SDS011;18644;48.700;9.210;2023-06-10T08:39:21;2.45;;;2.25;;
32138;SDS011;18644;48.700;9.210;2023-06-10T08:44:38;3.38;;;2.50;;
32138;SDS011;18644;48.700;9.210;2023-06-10T08:47:07;3.20;;;2.90;;
32138;SDS011;18644;48.700;9.210;2023-06-10T08:49:41;2.55;;;2.35;;
32138;SDS011;18644;48.700;9.210;2023-06-10T08:52:11;2.75;;;2.55;;
32138;SDS011;18644;48.700;9.210;2023-06-10T08:54:42;2.40;;;2.20;;
32138;SDS011;18644;48.700;9.210;2023-06-10T08:57:15;2.42;;;2.22;;
32138;SDS011;18644;48.700;9.210;2023-06-10T08:59:46;2.60;;;2.40;;
32138;SDS011;18644;48.700;9.210;2023-06-10T09:02:14;2.28;;;2.08;;
32138;SDS011;18644;48.700;9.210;2023-06-10T09:04:44;2.47;;;2.27;;
32138;SDS011;18644;48.700;9.210;2023-06-10T09:07:13;2.50;;;2.30;;
32138;SDS011;18644;48.700;9.210;2023-06-10T09:09:41;3.28;;;2.60;;
32138;SDS011;18644;48.700;9.210;2023-06-10T09:12:09;2.58;;;2.17;;
32138;SDS011;18644;48.700;9.210;2023-06-10T09:14:37;2.42;;;2.22;;
32138;SDS011;18644;48.700;9.210;2023-06-10T09:17:06;2.40;;;2.20;;
32138;SDS011;18644;48.700;9.210;2023-06-10T09:19:33;2.15;;;1.95;;
32138;SDS011;18644;48.700;9.210;2023-06-10T09:22:01;2.80;;;2.60;;
32138;SDS011;18644;48.700;9.210;2023-06-10T09:24:28;2.50;;;2.30;;
32138;SDS011;18644;48.700;9.210;2023-06-10T09:27:01;2.65;;;2.45;;
32138;SDS011;18644;48.700;9.210;2023-06-10T09:29:30;2.63;;;2.42;;
32138;SDS011;18644;48.700;9.210;2023-06-10T09:31:57;2.13;;;1.95;;
32138;SDS011;18644;48.700;9.210;2023-06-10T09:34:25;2.97;;;2.03;;
32138;SDS011;18644;48.700;9.210;2023-06-10T09:36:52;2.80;;;2.60;;
32138;SDS011;18644;48.700;9.210;2023-06-10T09:39:20;2.60;;;2.40;;
32138;SDS011;18644;48.700;9.210;2023-06-10T09:41:47;2.42;;;2.22;;
32138;SDS011;18644;48.700;9.210;2023-06-10T09:44:18;2.55;;;2.30;;
32138;SDS011;18644;48.700;9.210;2023-06-10T09:46:47;2.50;;;2.20;;
32138;SDS011;18644;48.700;9.210;2023-06-10T09:49:16;2.50;;;2.30;;
32138;SDS011;18644;48.700;9.210;2023-06-10T09:51:51;2.45;;;2.25;;
32138;SDS011;18644;48.700;9.210;2023-06-10T09:54:19;3.15;;;2.30;;
32138;SDS011;18644;48.700;9.210;2023-06-10T09:56:47;2.88;;;2.35;;
32138;SDS011;18644;48.700;9.210;2023-06-10T09:59:15;2.22;;;2.10;;
32138;SDS011;18644;48.700;9.210;2023-06-10T10:01:42;1.90;;;1.80;;
32138;SDS011;18644;48.700;9.210;2023-06-10T10:04:10;2.03;;;1.92;;
32138;SDS011;18644;48.700;9.210;2023-06-10T10:06:37;2.33;;;2.13;;
32138;SDS011;18644;48.700;9.210;2023-06-10T10:09:06;2.40;;;2.20;;
32138;SDS011;18644;48.700;9.210;2023-06-10T10:11:33;2.65;;;2.00;;
32138;SDS011;18644;48.700;9.210;2023-06-10T10:14:01;1.90;;;1.77;;
32138;SDS011;18644;48.700;9.210;2023-06-10T10:16:33;2.20;;;2.00;;
32138;SDS011;18644;48.700;9.210;2023-06-10T10:19:07;2.60;;;2.35;;
32138;SDS011;18644;48.700;9.210;2023-06-10T10:21:44;2.53;;;2.30;;
32138;SDS011;18644;48.700;9.210;2023-06-10T10:24:23;2.92;;;2.30;;
32138;SDS011;18644;48.700;9.210;2023-06-10T10:26:59;2.30;;;2.10;;
32138;SDS011;18644;48.700;9.210;2023-06-10T10:29:35;2.53;;;2.30;;
32138;SDS011;18644;48.700;9.210;2023-06-10T10:32:06;7.88;;;2.00;;
32138;SDS011;18644;48.700;9.210;2023-06-10T10:34:35;1.95;;;1.85;;
32138;SDS011;18644;48.700;9.210;2023-06-10T10:37:08;1.88;;;1.77;;
32138;SDS011;18644;48.700;9.210;2023-06-10T10:39:37;2.40;;;2.20;;
32138;SDS011;18644;48.700;9.210;2023-06-10T10:42:05;2.58;;;2.17;;
32138;SDS011;18644;48.700;9.210;2023-06-10T10:44:35;2.10;;;2.00;;
32138;SDS011;18644;48.700;9.210;2023-06-10T10:47:03;3.58;;;1.83;;
32138;SDS011;18644;48.700;9.210;2023-06-10T10:49:34;3.22;;;2.38;;
32138;SDS011;18644;48.700;9.210;2023-06-10T10:52:03;2.60;;;2.40;;
32138;SDS011;18644;48.700;9.210;2023-06-10T10:54:32;2.58;;;2.15;;
32138;SDS011;18644;48.700;9.210;2023-06-10T10:57:11;3.38;;;1.95;;
32138;SDS011;18644;48.700;9.210;2023-06-10T10:59:43;2.58;;;2.25;;
32138;SDS011;18644;48.700;9.210;2023-06-10T11:02:32;2.42;;;2.22;;
32138;SDS011;18644;48.700;9.210;2023-06-10T11:05:08;2.13;;;1.92;;
32138;SDS011;18644;48.700;9.210;2023-06-10T11:07:37;2.40;;;2.20;;
32138;SDS011;18644;48.700;9.210;2023-06-10T11:10:07;1.83;;;1.63;;
32138;SDS011;18644;48.700;9.210;2023-06-10T11:12:43;2.30;;;2.10;;
32138;SDS011;18644;48.700;9.210;2023-06-10T11:15:18;2.38;;;2.00;;
32138;SDS011;18644;48.700;9.210;2023-06-10T11:20:52;2.00;;;1.80;;
32138;SDS011;18644;48.700;9.210;2023-06-10T11:23:25;1.85;;;1.75;;
32138;SDS011;18644;48.700;9.210;2023-06-10T11:26:09;2.53;;;2.00;;
32138;SDS011;18644;48.700;9.210;2023-06-10T11:28:42;2.10;;;1.77;;
32138;SDS011;18644;48.700;9.210;2023-06-10T11:31:28;2.03;;;1.75;;
32138;SDS011;18644;48.700;9.210;2023-06-10T11:33:57;2.88;;;2.30;;
32138;SDS011;18644;48.700;9.210;2023-06-10T11:36:26;1.90;;;1.80;;
32138;SDS011;18644;48.700;9.210;2023-06-10T11:38:55;1.98;;;1.77;;
32138;SDS011;18644;48.700;9.210;2023-06-10T11:41:24;5.85;;;1.80;;
32138;SDS011;18644;48.700;9.210;2023-06-10T11:43:55;1.77;;;1.67;;
32138;SDS011;18644;48.700;9.210;2023-06-10T11:46:23;2.38;;;2.03;;
32138;SDS011;18644;48.700;9.210;2023-06-10T11:48:52;2.05;;;1.90;;
32138;SDS011;18644;48.700;9.210;2023-06-10T11:51:20;1.98;;;1.80;;
32138;SDS011;18644;48.700;9.210;2023-06-10T11:53:48;1.83;;;1.73;;
32138;SDS011;18644;48.700;9.210;2023-06-10T11:56:19;1.90;;;1.80;;
32138;SDS011;18644;48.700;9.210;2023-06-10T11:58:49;2.03;;;1.83;;
32138;SDS011;18644;48.700;9.210;2023-06-10T12:01:21;1.90;;;1.80;;
32138;SDS011;18644;48.700;9.210;2023-06-10T12:03:56;1.63;;;1.52;;
32138;SDS011;18644;48.700;9.210;2023-06-10T12:06:24;2.70;;;2.03;;
32138;SDS011;18644;48.700;9.210;2023-06-10T12:08:52;1.90;;;1.80;;
32138;SDS011;18644;48.700;9.210;2023-06-10T12:11:23;4.25;;;1.95;;
32138;SDS011;18644;48.700;9.210;2023-06-10T12:13:51;1.70;;;1.60;;
32138;SDS011;18644;48.700;9.210;2023-06-10T12:16:20;2.40;;;2.20;;
32138;SDS011;18644;48.700;9.210;2023-06-10T12:18:47;1.90;;;1.80;;
32138;SDS011;18644;48.700;9.210;2023-06-10T12:21:15;2.20;;;2.00;;
32138;SDS011;18644;48.700;9.210;2023-06-10T12:24:02;2.95;;;1.83;;
32138;SDS011;18644;48.700;9.210;2023-06-10T12:26:35;1.90;;;1.80;;
32138;SDS011;18644;48.700;9.210;2023-06-10T12:29:21;1.67;;;1.58;;
32138;SDS011;18644;48.700;9.210;2023-06-10T12:31:57;3.50;;;2.33;;
32138;SDS011;18644;48.700;9.210;2023-06-10T12:34:31;2.00;;;1.90;;
32138;SDS011;18644;48.700;9.210;2023-06-10T12:37:03;2.13;;;1.92;;
32138;SDS011;18644;48.700;9.210;2023-06-10T12:39:32;1.80;;;1.70;;
32138;SDS011;18644;48.700;9.210;2023-06-10T12:41:59;2.20;;;1.98;;
32138;SDS011;18644;48.700;9.210;2023-06-10T12:44:31;2.10;;;2.00;;
32138;SDS011;18644;48.700;9.210;2023-06-10T12:47:00;1.80;;;1.70;;
32138;SDS011;18644;48.700;9.210;2023-06-10T12:49:33;1.92;;;1.80;;
32138;SDS011;18644;48.700;9.210;2023-06-10T12:52:01;1.73;;;1.63;;
32138;SDS011;18644;48.700;9.210;2023-06-10T12:54:28;1.90;;;1.80;;
32138;SDS011;18644;48.700;9.210;2023-06-10T12:56:55;1.90;;;1.60;;
32138;SDS011;18644;48.700;9.210;2023-06-10T12:59:22;1.67;;;1.58;;
32138;SDS011;18644;48.700;9.210;2023-06-10T13:01:50;1.67;;;1.58;;
32138;SDS011;18644;48.700;9.210;2023-06-10T13:04:19;1.90;;;1.80;;
32138;SDS011;18644;48.700;9.210;2023-06-10T13:06:46;1.80;;;1.70;;
32138;SDS011;18644;48.700;9.210;2023-06-10T13:09:14;1.73;;;1.60;;
32138;SDS011;18644;48.700;9.210;2023-06-10T13:11:41;1.77;;;1.67;;
32138;SDS011;18644;48.700;9.210;2023-06-10T13:14:09;2.67;;;2.15;;
32138;SDS011;18644;48.700;9.210;2023-06-10T13:16:37;1.77;;;1.67;;
32138;SDS011;18644;48.700;9.210;2023-06-10T13:19:06;1.90;;;1.80;;
32138;SDS011;18644;48.700;9.210;2023-06-10T13:21:34;2.17;;;1.98;;
32138;SDS011;18644;48.700;9.210;2023-06-10T13:24:02;2.05;;;1.92;;
32138;SDS011;18644;48.700;9.210;2023-06-10T13:26:29;1.73;;;1.63;;
32138;SDS011;18644;48.700;9.210;2023-06-10T13:28:56;1.90;;;1.70;;
32138;SDS011;18644;48.700;9.210;2023-06-10T13:31:23;2.00;;;1.80;;
32138;SDS011;18644;48.700;9.210;2023-06-10T13:33:50;2.03;;;1.92;;
32138;SDS011;18644;48.700;9.210;2023-06-10T13:36:17;1.90;;;1.80;;
32138;SDS011;18644;48.700;9.210;2023-06-10T13:38:45;2.10;;;1.90;;
32138;SDS011;18644;48.700;9.210;2023-06-10T13:41:13;2.08;;;1.63;;
32138;SDS011;18644;48.700;9.210;2023-06-10T13:43:42;1.98;;;1.83;;
32138;SDS011;18644;48.700;9.210;2023-06-10T13:46:09;2.30;;;2.10;;
32138;SDS011;18644;48.700;9.210;2023-06-10T13:48:36;2.35;;;2.15;;
32138;SDS011;18644;48.700;9.210;2023-06-10T13:51:03;3.50;;;2.03;;
32138;SDS011;18644;48.700;9.210;2023-06-10T13:53:31;1.90;;;1.77;;
32138;SDS011;18644;48.700;9.210;2023-06-10T13:55:59;3.00;;;1.95;;
32138;SDS011;18644;48.700;9.210;2023-06-10T13:58:26;1.95;;;1.80;;
32138;SDS011;18644;48.700;9.210;2023-06-10T14:00:53;2.10;;;1.90;;
32138;SDS011;18644;48.700;9.210;2023-06-10T14:03:20;1.85;;;1.63;;
32138;SDS011;18644;48.700;9.210;2023-06-10T14:05:47;2.58;;;2.03;;
32138;SDS011;18644;48.700;9.210;2023-06-10T14:08:14;2.15;;;1.95;;
32138;SDS011;18644;48.700;9.210;2023-06-10T14:10:41;1.60;;;1.50;;
32138;SDS011;18644;48.700;9.210;2023-06-10T14:13:10;1.88;;;1.77;;
32138;SDS011;18644;48.700;9.210;2023-06-10T14:15:36;1.88;;;1.77;;
32138;SDS011;18644;48.700;9.210;2023-06-10T14:18:04;2.03;;;1.83;;
32138;SDS011;18644;48.700;9.210;2023-06-10T14:20:31;2.10;;;1.90;;
32138;SDS011;18644;48.700;9.210;2023-06-10T14:22:58;1.98;;;1.88;;
32138;SDS011;18644;48.700;9.210;2023-06-10T14:25:25;2.38;;;1.73;;
32138;SDS011;18644;48.700;9.210;2023-06-10T14:27:51;1.83;;;1.67;;
32138;SDS011;18644;48.700;9.210;2023-06-10T14:30:20;2.20;;;2.00;;
32138;SDS011;18644;48.700;9.210;2023-06-10T14:32:47;2.05;;;1.92;;
32138;SDS011;18644;48.700;9.210;2023-06-10T14:35:14;1.98;;;1.70;;
32138;SDS011;18644;48.700;9.210;2023-06-10T14:37:40;2.08;;;1.70;;
32138;SDS011;18644;48.700;9.210;2023-06-10T14:40:08;2.20;;;2.10;;
32138;SDS011;18644;48.700;9.210;2023-06-10T14:42:35;1.73;;;1.63;;
32138;SDS011;18644;48.700;9.210;2023-06-10T14:45:03;1.90;;;1.80;;
32138;SDS011;18644;48.700;9.210;2023-06-10T14:47:33;2.97;;;2.03;;
32138;SDS011;18644;48.700;9.210;2023-06-10T14:50:00;2.22;;;1.92;;
32138;SDS011;18644;48.700;9.210;2023-06-10T14:52:26;2.05;;;1.85;;
32138;SDS011;18644;48.700;9.210;2023-06-10T14:54:53;2.20;;;2.00;;
32138;SDS011;18644;48.700;9.210;2023-06-10T14:57:20;1.92;;;1.83;;
32138;SDS011;18644;48.700;9.210;2023-06-10T14:59:48;2.30;;;2.10;;
32138;SDS011;18644;48.700;9.210;2023-06-10T15:02:15;2.92;;;2.05;;